Time;durP1;ratioP1;P1;durP2;ratioP2;P2;SDS_P1;SDS_P2;PMS_P1;PMS_P2;Temp;Humidity;BMP_temperature;BMP_pressure;BME280_temperature;BME280_humidity;BME280_pressure;Samples;Min_cycle;Max_cycle;Signal;HPM_P1;HPM_P2
2023/12/11 00:01:45;;;;;;;9.88;3.35;;;;;;;;;;5050257;28;20009;-63
2023/12/11 00:04:13;;;;;;;16.02;3.45;;;;;;;;;;5059748;28;20034;-63
2023/12/11 00:06:38;;;;;;;9.90;2.58;;;;;;;;;;5040696;28;20033;-62
2023/12/11 00:09:04;;;;;;;12.05;2.90;;;;;;;;;;5039129;28;20443;-63
2023/12/11 00:11:29;;;;;;;17.02;3.58;;;;;;;;;;5036491;28;20024;-63
2023/12/11 00:13:54;;;;;;;12.57;2.10;;;;;;;;;;5044109;28;20484;-63
2023/12/11 00:16:19;;;;;;;12.48;2.88;;;;;;;;;;5035280;28;20075;-62
2023/12/11 00:18:45;;;;;;;7.03;2.47;;;;;;;;;;5044450;28;20036;-62
2023/12/11 00:21:10;;;;;;;12.00;2.35;;;;;;;;;;5039649;28;20840;-63
2023/12/11 00:23:36;;;;;;;9.73;2.92;;;;;;;;;;5039597;28;20118;-63
2023/12/11 00:26:01;;;;;;;9.30;2.33;;;;;;;;;;5049956;28;20459;-62
2023/12/11 00:28:26;;;;;;;13.20;2.75;;;;;;;;;;5050494;28;20123;-63
2023/12/11 00:30:51;;;;;;;9.48;2.90;;;;;;;;;;5044072;28;20021;-62
2023/12/11 00:33:17;;;;;;;9.30;2.85;;;;;;;;;;5046245;28;20695;-62
2023/12/11 00:35:43;;;;;;;12.07;2.75;;;;;;;;;;5048324;28;20113;-62
2023/12/11 00:38:08;;;;;;;11.75;2.95;;;;;;;;;;5045260;28;20029;-63
2023/12/11 00:40:33;;;;;;;15.57;3.42;;;;;;;;;;5045820;28;20373;-62
2023/12/11 00:42:59;;;;;;;10.95;2.58;;;;;;;;;;5048405;28;20024;-62
2023/12/11 00:45:24;;;;;;;13.68;3.72;;;;;;;;;;5036637;28;20033;-62
2023/12/11 00:47:49;;;;;;;11.05;3.50;;;;;;;;;;5024143;28;20153;-62
2023/12/11 00:50:14;;;;;;;14.90;3.07;;;;;;;;;;5037705;28;20383;-62
2023/12/11 00:52:40;;;;;;;15.77;2.78;;;;;;;;;;5043634;28;20291;-63
2023/12/11 00:55:06;;;;;;;16.25;3.42;;;;;;;;;;5052418;28;20070;-62
2023/12/11 00:57:31;;;;;;;20.77;4.15;;;;;;;;;;5050286;28;20032;-62
2023/12/11 00:59:56;;;;;;;14.05;3.08;;;;;;;;;;5042366;28;20040;-62
2023/12/11 01:02:21;;;;;;;11.65;2.45;;;;;;;;;;5032285;28;20857;-62
2023/12/11 01:04:47;;;;;;;13.23;3.40;;;;;;;;;;5043111;28;20128;-63
2023/12/11 01:07:12;;;;;;;13.88;3.55;;;;;;;;;;5040506;28;20036;-63
2023/12/11 01:09:37;;;;;;;13.50;3.65;;;;;;;;;;5052896;28;20033;-62
2023/12/11 01:12:03;;;;;;;16.02;3.70;;;;;;;;;;5054230;28;20146;-62
2023/12/11 01:14:28;;;;;;;11.18;3.28;;;;;;;;;;5053119;28;20036;-62
2023/12/11 01:16:53;;;;;;;11.82;3.63;;;;;;;;;;5052651;28;20025;-62
2023/12/11 01:19:18;;;;;;;12.30;2.72;;;;;;;;;;5053086;28;20033;-63
2023/12/11 01:21:45;;;;;;;20.80;4.00;;;;;;;;;;5050228;28;20076;-64
2023/12/11 01:24:10;;;;;;;11.90;2.85;;;;;;;;;;5048008;28;20458;-63
2023/12/11 01:26:35;;;;;;;14.38;3.30;;;;;;;;;;5047494;28;20020;-63
2023/12/11 01:29:01;;;;;;;11.98;2.63;;;;;;;;;;5054500;28;20021;-62
2023/12/11 01:31:26;;;;;;;13.23;2.93;;;;;;;;;;5052129;28;20021;-63
2023/12/11 01:33:51;;;;;;;19.80;2.88;;;;;;;;;;5053615;28;20291;-62
2023/12/11 01:36:17;;;;;;;14.50;3.05;;;;;;;;;;5053595;28;20538;-62
2023/12/11 01:38:42;;;;;;;10.43;3.00;;;;;;;;;;5054739;28;20028;-62
2023/12/11 01:41:07;;;;;;;9.87;3.20;;;;;;;;;;5053835;28;20282;-62
2023/12/11 01:43:32;;;;;;;11.10;2.75;;;;;;;;;;5053133;28;20274;-63
2023/12/11 01:46:18;;;;;;;8.48;2.38;;;;;;;;;;5061234;28;20033;-62
2023/12/11 01:48:44;;;;;;;15.45;3.45;;;;;;;;;;5053583;28;20028;-62
2023/12/11 01:51:09;;;;;;;14.68;2.85;;;;;;;;;;5051886;28;20021;-63
2023/12/11 01:53:35;;;;;;;10.07;2.70;;;;;;;;;;5037986;28;20027;-63
2023/12/11 01:56:00;;;;;;;13.75;3.22;;;;;;;;;;5057940;28;20525;-62
2023/12/11 01:58:29;;;;;;;9.68;1.90;;;;;;;;;;5054734;28;20031;-62
2023/12/11 02:00:54;;;;;;;15.57;3.08;;;;;;;;;;5053235;28;20017;-62
2023/12/11 02:03:19;;;;;;;13.57;3.08;;;;;;;;;;5054757;28;20035;-62
2023/12/11 02:05:45;;;;;;;11.77;2.67;;;;;;;;;;5061345;28;20104;-62
2023/12/11 02:08:10;;;;;;;9.80;2.60;;;;;;;;;;5051392;28;20025;-62
2023/12/11 02:10:36;;;;;;;12.50;3.30;;;;;;;;;;5049824;28;20422;-62
2023/12/11 02:13:02;;;;;;;13.23;2.92;;;;;;;;;;5032305;28;20029;-62
2023/12/11 02:15:36;;;;;;;12.40;2.83;;;;;;;;;;5041150;28;20032;-62
2023/12/11 02:18:01;;;;;;;;;;;;;;;;;;5028143;28;20427;-63
2023/12/11 02:20:26;;;;;;;14.60;2.53;;;;;;;;;;5049231;28;20690;-62
2023/12/11 02:22:52;;;;;;;10.50;2.75;;;;;;;;;;5052903;28;20529;-62
2023/12/11 02:25:17;;;;;;;16.63;2.47;;;;;;;;;;5052897;28;20029;-62
2023/12/11 02:27:42;;;;;;;10.68;2.50;;;;;;;;;;5047028;28;20104;-62
2023/12/11 02:30:08;;;;;;;8.25;2.00;;;;;;;;;;5046109;28;20357;-62
2023/12/11 02:32:33;;;;;;;10.50;2.83;;;;;;;;;;5059966;28;20051;-62
2023/12/11 02:34:58;;;;;;;10.97;3.13;;;;;;;;;;5052907;28;20021;-62
2023/12/11 02:37:23;;;;;;;9.73;2.80;;;;;;;;;;5052316;28;20310;-62
2023/12/11 02:39:49;;;;;;;8.05;2.63;;;;;;;;;;5052871;28;20272;-62
2023/12/11 02:42:14;;;;;;;9.90;2.40;;;;;;;;;;5052689;28;20033;-62
2023/12/11 02:44:39;;;;;;;10.10;2.22;;;;;;;;;;5045639;28;20071;-63
2023/12/11 02:47:04;;;;;;;12.48;3.08;;;;;;;;;;5040223;28;20037;-62
2023/12/11 02:49:30;;;;;;;8.50;2.73;;;;;;;;;;5027828;28;20040;-62
2023/12/11 02:51:55;;;;;;;12.32;3.20;;;;;;;;;;5026896;28;20287;-62
2023/12/11 02:54:20;;;;;;;14.85;3.47;;;;;;;;;;5047106;28;20032;-62
2023/12/11 02:56:46;;;;;;;10.47;2.37;;;;;;;;;;5052515;28;20028;-62
2023/12/11 02:59:11;;;;;;;8.18;1.60;;;;;;;;;;5052378;28;20282;-62
2023/12/11 03:01:39;;;;;;;6.07;2.47;;;;;;;;;;5060480;28;20356;-62
2023/12/11 03:04:04;;;;;;;12.25;3.30;;;;;;;;;;5054036;28;20286;-62
2023/12/11 03:06:29;;;;;;;8.77;3.33;;;;;;;;;;5052405;28;20033;-62
2023/12/11 03:08:55;;;;;;;15.18;3.13;;;;;;;;;;5052317;28;20124;-62
2023/12/11 03:11:20;;;;;;;13.38;2.83;;;;;;;;;;5052120;28;20479;-61
2023/12/11 03:13:45;;;;;;;6.60;2.60;;;;;;;;;;5052284;28;20112;-62
2023/12/11 03:16:15;;;;;;;11.65;3.20;;;;;;;;;;5055357;28;20475;-61
2023/12/11 03:18:41;;;;;;;9.90;2.25;;;;;;;;;;5059988;28;20078;-62
2023/12/11 03:21:06;;;;;;;11.05;2.67;;;;;;;;;;5060063;28;20479;-61
2023/12/11 03:23:31;;;;;;;10.57;2.72;;;;;;;;;;5038270;28;20033;-61
2023/12/11 03:25:57;;;;;;;11.02;2.83;;;;;;;;;;5056908;28;20337;-61
2023/12/11 03:28:24;;;;;;;13.07;2.80;;;;;;;;;;5059018;28;20356;-62
2023/12/11 03:30:49;;;;;;;11.02;2.80;;;;;;;;;;5051578;28;20279;-61
2023/12/11 03:33:16;;;;;;;14.55;2.85;;;;;;;;;;5051445;28;20028;-63
2023/12/11 03:35:41;;;;;;;12.55;2.17;;;;;;;;;;5060748;28;20025;-62
2023/12/11 03:38:06;;;;;;;11.35;2.05;;;;;;;;;;5057757;28;20167;-61
2023/12/11 03:40:32;;;;;;;14.37;2.10;;;;;;;;;;5052226;28;20056;-62
2023/12/11 03:42:57;;;;;;;10.57;2.60;;;;;;;;;;5044761;28;20362;-62
2023/12/11 03:45:23;;;;;;;11.85;2.65;;;;;;;;;;5037028;28;20063;-63
2023/12/11 03:47:48;;;;;;;13.20;3.33;;;;;;;;;;5043142;28;20025;-63
2023/12/11 03:50:13;;;;;;;11.48;2.13;;;;;;;;;;5052582;28;20028;-62
2023/12/11 03:52:39;;;;;;;11.77;2.65;;;;;;;;;;5042211;28;20502;-62
2023/12/11 03:55:04;;;;;;;14.43;2.83;;;;;;;;;;5033062;28;20856;-62
2023/12/11 03:57:29;;;;;;;8.15;2.70;;;;;;;;;;5048729;28;20025;-63
2023/12/11 03:59:55;;;;;;;12.80;2.73;;;;;;;;;;5032588;28;21005;-62
2023/12/11 04:02:20;;;;;;;7.95;2.35;;;;;;;;;;5049796;28;20722;-64
2023/12/11 04:04:45;;;;;;;13.73;3.03;;;;;;;;;;5030100;28;20036;-64
2023/12/11 04:07:10;;;;;;;7.47;2.30;;;;;;;;;;5043858;28;20040;-63
2023/12/11 04:09:35;;;;;;;8.68;2.88;;;;;;;;;;5033061;28;20495;-64
2023/12/11 04:12:01;;;;;;;9.32;2.50;;;;;;;;;;5035161;28;20386;-65
2023/12/11 04:14:26;;;;;;;12.57;3.08;;;;;;;;;;5054213;28;20064;-64
2023/12/11 04:16:51;;;;;;;13.82;2.78;;;;;;;;;;5048757;28;20067;-65
2023/12/11 04:19:17;;;;;;;7.75;2.55;;;;;;;;;;5051846;28;20025;-63
2023/12/11 04:21:42;;;;;;;15.85;2.42;;;;;;;;;;5061714;28;20444;-63
2023/12/11 04:24:07;;;;;;;14.80;2.63;;;;;;;;;;5050352;28;20029;-63
2023/12/11 04:26:32;;;;;;;9.13;2.67;;;;;;;;;;5052138;28;20384;-63
2023/12/11 04:28:58;;;;;;;11.02;2.72;;;;;;;;;;5051540;28;20074;-63
2023/12/11 04:31:23;;;;;;;15.60;3.90;;;;;;;;;;5050728;28;20028;-63
2023/12/11 04:33:51;;;;;;;13.18;2.75;;;;;;;;;;5050413;28;20072;-63
2023/12/11 04:36:16;;;;;;;13.52;3.25;;;;;;;;;;5053777;28;20025;-63
2023/12/11 04:38:42;;;;;;;10.00;2.65;;;;;;;;;;5060885;28;20032;-63
2023/12/11 04:41:07;;;;;;;11.68;2.80;;;;;;;;;;5050783;28;20032;-64
2023/12/11 04:43:35;;;;;;;12.98;2.75;;;;;;;;;;5051122;28;20029;-64
2023/12/11 04:46:00;;;;;;;10.70;2.78;;;;;;;;;;5050694;28;20021;-64
2023/12/11 04:48:25;;;;;;;10.70;1.77;;;;;;;;;;5052037;28;20099;-64
2023/12/11 04:50:50;;;;;;;9.77;2.17;;;;;;;;;;5053638;28;20025;-64
2023/12/11 04:53:16;;;;;;;7.35;2.28;;;;;;;;;;5053491;28;20037;-63
2023/12/11 04:55:41;;;;;;;10.73;2.63;;;;;;;;;;5054439;28;20021;-63
2023/12/11 04:58:06;;;;;;;7.47;2.22;;;;;;;;;;5055183;28;20379;-63
2023/12/11 05:00:32;;;;;;;12.18;2.33;;;;;;;;;;5054118;28;20017;-63
2023/12/11 05:02:57;;;;;;;7.57;2.30;;;;;;;;;;5035825;28;20025;-63
2023/12/11 05:05:22;;;;;;;13.80;2.63;;;;;;;;;;5053582;28;20366;-63
2023/12/11 05:07:47;;;;;;;11.80;2.35;;;;;;;;;;5054217;28;20106;-62
2023/12/11 05:10:13;;;;;;;12.50;2.60;;;;;;;;;;5059536;28;20066;-63
2023/12/11 05:12:38;;;;;;;13.23;2.85;;;;;;;;;;5051943;28;20037;-64
2023/12/11 05:15:03;;;;;;;18.47;2.57;;;;;;;;;;5052667;28;20017;-63
2023/12/11 05:17:29;;;;;;;8.98;2.38;;;;;;;;;;5052645;28;20671;-63
2023/12/11 05:19:55;;;;;;;13.00;2.75;;;;;;;;;;5046932;28;20032;-62
2023/12/11 05:22:20;;;;;;;15.32;3.13;;;;;;;;;;5054538;28;20112;-62
2023/12/11 05:24:45;;;;;;;17.88;2.80;;;;;;;;;;5047990;28;20064;-63
2023/12/11 05:27:11;;;;;;;10.68;3.45;;;;;;;;;;5053628;28;20040;-63
2023/12/11 05:29:37;;;;;;;9.32;2.75;;;;;;;;;;5061843;28;20479;-62
2023/12/11 05:32:02;;;;;;;9.65;2.25;;;;;;;;;;5053669;28;20056;-62
2023/12/11 05:34:27;;;;;;;9.65;2.45;;;;;;;;;;5054263;28;20037;-63
2023/12/11 05:36:53;;;;;;;10.23;3.10;;;;;;;;;;5053882;28;20036;-62
2023/12/11 05:39:19;;;;;;;7.20;2.88;;;;;;;;;;5066512;28;20029;-63
2023/12/11 05:41:44;;;;;;;19.42;3.10;;;;;;;;;;5053781;28;20424;-63
2023/12/11 05:44:09;;;;;;;11.82;3.95;;;;;;;;;;5053414;28;20021;-63
2023/12/11 05:46:34;;;;;;;15.88;4.40;;;;;;;;;;5053215;28;20025;-64
2023/12/11 05:49:00;;;;;;;13.48;4.03;;;;;;;;;;5053084;28;20028;-63
2023/12/11 05:51:27;;;;;;;9.30;3.30;;;;;;;;;;5053675;28;20029;-63
2023/12/11 05:53:52;;;;;;;10.25;4.55;;;;;;;;;;5050467;28;20029;-63
2023/12/11 05:56:17;;;;;;;13.85;3.90;;;;;;;;;;5053414;28;20036;-63
2023/12/11 05:58:43;;;;;;;14.73;3.28;;;;;;;;;;5050827;28;20537;-63
2023/12/11 06:01:08;;;;;;;7.63;2.47;;;;;;;;;;5043799;28;20542;-63
2023/12/11 06:03:34;;;;;;;14.85;3.20;;;;;;;;;;5052993;28;20044;-62
2023/12/11 06:05:59;;;;;;;8.57;2.13;;;;;;;;;;5053634;28;20032;-62
2023/12/11 06:08:25;;;;;;;13.63;2.33;;;;;;;;;;5053667;28;20032;-62
2023/12/11 06:10:50;;;;;;;10.35;2.58;;;;;;;;;;5050810;28;20843;-62
2023/12/11 06:13:15;;;;;;;13.20;1.77;;;;;;;;;;5030429;28;20826;-62
2023/12/11 06:15:41;;;;;;;6.57;2.15;;;;;;;;;;5031794;28;20017;-63
2023/12/11 06:18:06;;;;;;;13.25;2.75;;;;;;;;;;5036628;28;20029;-63
2023/12/11 06:20:32;;;;;;;10.02;2.33;;;;;;;;;;5050381;28;20024;-63
2023/12/11 06:22:57;;;;;;;5.73;2.27;;;;;;;;;;5049160;28;20900;-62
2023/12/11 06:25:22;;;;;;;6.32;2.28;;;;;;;;;;5057022;28;20740;-62
2023/12/11 06:27:47;;;;;;;9.07;2.53;;;;;;;;;;5065704;28;20039;-62
2023/12/11 06:30:14;;;;;;;14.40;3.13;;;;;;;;;;5059080;28;20025;-62
2023/12/11 06:32:39;;;;;;;11.95;2.72;;;;;;;;;;5054408;28;20388;-63
2023/12/11 06:35:05;;;;;;;13.02;2.65;;;;;;;;;;5043748;28;20032;-62
2023/12/11 06:37:30;;;;;;;10.73;2.30;;;;;;;;;;5052400;28;20119;-62
2023/12/11 06:39:55;;;;;;;13.18;2.55;;;;;;;;;;5053636;28;20028;-62
2023/12/11 06:42:20;;;;;;;10.02;2.63;;;;;;;;;;5044155;28;20024;-63
2023/12/11 06:44:45;;;;;;;8.85;2.72;;;;;;;;;;5053792;28;20546;-62
2023/12/11 06:47:12;;;;;;;8.85;2.75;;;;;;;;;;5053687;28;20029;-62
2023/12/11 06:49:37;;;;;;;11.05;2.10;;;;;;;;;;5052186;28;20426;-62
2023/12/11 06:52:03;;;;;;;9.85;2.95;;;;;;;;;;5052702;28;20034;-62
2023/12/11 06:54:28;;;;;;;13.07;3.25;;;;;;;;;;5051830;28;20036;-62
2023/12/11 06:56:53;;;;;;;8.83;2.87;;;;;;;;;;5052343;28;20035;-63
2023/12/11 06:59:18;;;;;;;9.80;2.80;;;;;;;;;;5053892;28;20632;-62
2023/12/11 07:01:44;;;;;;;11.80;2.75;;;;;;;;;;5058490;28;20021;-63
2023/12/11 07:04:09;;;;;;;6.07;1.80;;;;;;;;;;5040620;28;20067;-62
2023/12/11 07:06:34;;;;;;;12.45;3.15;;;;;;;;;;5044880;28;20025;-62
2023/12/11 07:08:59;;;;;;;10.27;3.23;;;;;;;;;;5016849;28;20024;-62
2023/12/11 07:11:25;;;;;;;8.30;2.97;;;;;;;;;;5028355;28;21184;-62
2023/12/11 07:13:50;;;;;;;8.30;2.03;;;;;;;;;;5021932;28;20029;-62
2023/12/11 07:16:15;;;;;;;8.00;2.60;;;;;;;;;;5026204;28;20155;-62
2023/12/11 07:18:41;;;;;;;7.22;2.05;;;;;;;;;;5010179;28;20951;-62
2023/12/11 07:21:07;;;;;;;7.18;2.00;;;;;;;;;;5011979;28;20246;-62
2023/12/11 07:23:32;;;;;;;8.85;2.25;;;;;;;;;;5016643;28;20048;-62
2023/12/11 07:25:57;;;;;;;8.05;2.45;;;;;;;;;;5014861;28;20028;-62
2023/12/11 07:28:23;;;;;;;7.30;2.30;;;;;;;;;;5018803;28;20055;-62
2023/12/11 07:30:48;;;;;;;10.40;2.20;;;;;;;;;;5026655;28;20872;-63
2023/12/11 07:33:13;;;;;;;7.55;1.48;;;;;;;;;;5017791;28;21205;-63
2023/12/11 07:35:38;;;;;;;4.85;1.85;;;;;;;;;;5047373;28;20021;-62
2023/12/11 07:38:03;;;;;;;8.23;2.38;;;;;;;;;;5040880;28;20036;-62
2023/12/11 07:40:29;;;;;;;10.53;1.97;;;;;;;;;;5035095;28;20814;-63
2023/12/11 07:42:54;;;;;;;11.15;2.42;;;;;;;;;;5043055;28;20369;-62
2023/12/11 07:45:20;;;;;;;11.60;3.07;;;;;;;;;;5052297;28;20047;-62
2023/12/11 07:47:46;;;;;;;8.02;1.88;;;;;;;;;;5031892;28;20377;-62
2023/12/11 07:50:11;;;;;;;11.93;3.30;;;;;;;;;;5047986;28;20490;-62
2023/12/11 07:52:36;;;;;;;13.35;2.95;;;;;;;;;;5048070;28;20108;-62
2023/12/11 07:55:02;;;;;;;12.93;3.08;;;;;;;;;;5049536;28;20430;-62
2023/12/11 07:57:28;;;;;;;11.40;2.83;;;;;;;;;;5046727;28;20025;-62
2023/12/11 07:59:53;;;;;;;10.52;2.72;;;;;;;;;;5047452;28;20138;-63
2023/12/11 08:02:18;;;;;;;8.65;2.38;;;;;;;;;;5052952;28;20456;-62
2023/12/11 08:04:44;;;;;;;10.48;3.00;;;;;;;;;;5054524;28;20455;-62
2023/12/11 08:07:09;;;;;;;9.18;2.45;;;;;;;;;;5046515;28;20024;-62
2023/12/11 08:09:39;;;;;;;11.25;3.65;;;;;;;;;;5046734;28;20169;-62
2023/12/11 08:12:04;;;;;;;11.52;2.70;;;;;;;;;;5032416;28;20029;-63
2023/12/11 08:14:29;;;;;;;8.50;2.75;;;;;;;;;;5035221;28;20142;-62
2023/12/11 08:16:55;;;;;;;12.15;3.30;;;;;;;;;;5046378;28;20021;-62
2023/12/11 08:19:20;;;;;;;12.02;2.80;;;;;;;;;;5050658;28;20475;-62
2023/12/11 08:21:45;;;;;;;6.68;2.03;;;;;;;;;;5029170;28;20192;-62
2023/12/11 08:24:11;;;;;;;14.77;3.33;;;;;;;;;;5041805;28;20028;-62
2023/12/11 08:26:36;;;;;;;14.68;3.28;;;;;;;;;;5042278;28;20608;-62
2023/12/11 08:29:01;;;;;;;12.93;3.77;;;;;;;;;;5054286;28;20060;-62
2023/12/11 08:31:26;;;;;;;13.73;3.40;;;;;;;;;;5049442;28;20314;-63
2023/12/11 08:33:52;;;;;;;8.73;2.53;;;;;;;;;;5021813;28;20041;-62
2023/12/11 08:36:17;;;;;;;10.95;3.05;;;;;;;;;;5024667;28;20023;-63
2023/12/11 08:38:43;;;;;;;14.35;3.17;;;;;;;;;;5033478;28;20078;-62
2023/12/11 08:41:08;;;;;;;11.32;2.75;;;;;;;;;;5026873;28;20922;-63
2023/12/11 08:43:34;;;;;;;12.32;3.55;;;;;;;;;;5026915;28;20127;-63
2023/12/11 08:45:59;;;;;;;13.15;3.42;;;;;;;;;;5026574;28;20898;-63
2023/12/11 08:48:24;;;;;;;8.32;2.90;;;;;;;;;;5023740;28;20420;-62
2023/12/11 08:50:52;;;;;;;16.05;3.13;;;;;;;;;;5031327;28;20152;-62
2023/12/11 08:53:17;;;;;;;11.00;3.05;;;;;;;;;;5027250;28;20025;-63
2023/12/11 08:55:43;;;;;;;8.57;2.63;;;;;;;;;;5019961;28;20031;-62
2023/12/11 08:58:08;;;;;;;7.40;2.93;;;;;;;;;;5028299;28;20366;-62
2023/12/11 09:00:33;;;;;;;16.27;3.72;;;;;;;;;;5020892;28;20264;-62
2023/12/11 09:02:58;;;;;;;13.70;3.28;;;;;;;;;;5027608;28;20042;-62
2023/12/11 09:05:24;;;;;;;17.20;2.65;;;;;;;;;;5035933;28;20016;-63
2023/12/11 09:07:49;;;;;;;13.60;2.75;;;;;;;;;;5028276;28;20017;-62
2023/12/11 09:10:14;;;;;;;9.77;3.60;;;;;;;;;;5018273;28;20023;-63
2023/12/11 09:12:40;;;;;;;12.80;2.90;;;;;;;;;;5019236;28;20025;-62
2023/12/11 09:15:05;;;;;;;11.20;3.08;;;;;;;;;;5030013;28;20067;-62
2023/12/11 09:17:31;;;;;;;13.15;2.95;;;;;;;;;;5018014;28;20180;-62
2023/12/11 09:19:56;;;;;;;16.25;3.13;;;;;;;;;;5023885;28;20071;-62
2023/12/11 09:22:22;;;;;;;7.25;2.80;;;;;;;;;;5015784;28;20025;-62
2023/12/11 09:24:47;;;;;;;13.93;2.55;;;;;;;;;;5016506;28;20720;-63
2023/12/11 09:27:15;;;;;;;10.80;2.58;;;;;;;;;;5044946;28;20028;-61
2023/12/11 09:29:41;;;;;;;9.73;2.28;;;;;;;;;;5024365;28;20028;-62
2023/12/11 09:32:06;;;;;;;12.43;3.08;;;;;;;;;;5025195;28;20024;-61
2023/12/11 09:34:32;;;;;;;12.73;2.63;;;;;;;;;;5029252;28;20044;-63
2023/12/11 09:36:58;;;;;;;7.40;2.08;;;;;;;;;;5036032;28;20082;-62
2023/12/11 09:39:23;;;;;;;7.30;2.05;;;;;;;;;;5040083;28;20024;-63
2023/12/11 09:41:49;;;;;;;9.18;2.88;;;;;;;;;;5024341;28;20025;-63
2023/12/11 09:44:16;;;;;;;11.48;2.35;;;;;;;;;;5026501;28;20032;-61
2023/12/11 09:46:54;;;;;;;9.35;2.03;;;;;;;;;;5042648;28;20029;-63
2023/12/11 09:49:19;;;;;;;9.63;2.60;;;;;;;;;;5046072;28;20044;-62
2023/12/11 09:51:45;;;;;;;8.32;2.30;;;;;;;;;;5025791;28;20475;-63
2023/12/11 09:54:11;;;;;;;12.23;2.53;;;;;;;;;;5025518;28;20848;-63
2023/12/11 09:56:37;;;;;;;8.45;2.67;;;;;;;;;;5029030;28;20057;-62
2023/12/11 09:59:03;;;;;;;12.45;2.75;;;;;;;;;;5052401;28;20032;-62
2023/12/11 10:01:28;;;;;;;12.25;4.40;;;;;;;;;;5041819;28;20043;-61
2023/12/11 10:03:54;;;;;;;8.38;4.13;;;;;;;;;;5025071;28;20025;-61
2023/12/11 10:06:19;;;;;;;8.50;2.80;;;;;;;;;;5033526;28;20988;-61
2023/12/11 10:08:47;;;;;;;12.77;2.65;;;;;;;;;;5026877;28;20872;-62
2023/12/11 10:11:13;;;;;;;11.75;3.20;;;;;;;;;;5026256;28;20150;-61
2023/12/11 10:13:39;;;;;;;6.95;2.33;;;;;;;;;;5019953;28;20033;-61
2023/12/11 10:16:06;;;;;;;11.75;2.25;;;;;;;;;;5021608;28;20052;-61
2023/12/11 10:18:32;;;;;;;6.32;2.17;;;;;;;;;;5027368;28;20182;-62
2023/12/11 10:20:58;;;;;;;13.05;2.15;;;;;;;;;;5024155;28;20905;-60
2023/12/11 10:23:23;;;;;;;9.85;1.90;;;;;;;;;;5022956;28;20906;-61
2023/12/11 10:25:50;;;;;;;9.98;1.98;;;;;;;;;;5025244;28;20013;-61
2023/12/11 10:28:17;;;;;;;10.10;2.05;;;;;;;;;;5017970;28;20013;-61
2023/12/11 10:30:52;;;;;;;6.55;1.60;;;;;;;;;;5024447;28;20054;-61
2023/12/11 10:33:18;;;;;;;7.78;2.05;;;;;;;;;;5037299;28;20071;-61
2023/12/11 10:35:43;;;;;;;8.73;2.22;;;;;;;;;;5025312;28;20379;-61
2023/12/11 10:38:09;;;;;;;9.52;2.03;;;;;;;;;;5025270;28;20021;-61
2023/12/11 10:40:38;;;;;;;6.57;1.70;;;;;;;;;;5021135;28;20028;-61
2023/12/11 10:43:03;;;;;;;5.50;1.58;;;;;;;;;;5020759;28;20114;-61
2023/12/11 10:45:29;;;;;;;6.60;1.80;;;;;;;;;;5016560;28;20037;-61
2023/12/11 10:47:55;;;;;;;10.10;1.80;;;;;;;;;;5037246;28;20021;-61
2023/12/11 10:50:20;;;;;;;7.47;1.90;;;;;;;;;;5036866;28;20032;-60
2023/12/11 10:52:46;;;;;;;8.00;2.15;;;;;;;;;;5021116;28;20200;-62
2023/12/11 10:55:11;;;;;;;9.82;1.95;;;;;;;;;;5034956;28;20025;-62
2023/12/11 10:57:36;;;;;;;8.65;2.08;;;;;;;;;;5043257;28;20920;-62
2023/12/11 11:00:03;;;;;;;11.18;2.15;;;;;;;;;;5049682;28;20117;-62
2023/12/11 11:02:29;;;;;;;8.02;1.58;;;;;;;;;;5033251;28;20032;-62
2023/12/11 11:04:55;;;;;;;5.40;1.65;;;;;;;;;;5037069;28;20060;-62
2023/12/11 11:07:26;;;;;;;4.88;1.83;;;;;;;;;;5049426;28;20806;-62
2023/12/11 11:09:51;;;;;;;6.90;1.35;;;;;;;;;;5024900;28;20052;-62
2023/12/11 11:12:27;;;;;;;9.53;1.37;;;;;;;;;;5037550;28;20866;-62
2023/12/11 11:14:52;;;;;;;12.98;2.40;;;;;;;;;;5028583;28;20291;-62
2023/12/11 11:17:17;;;;;;;6.35;1.48;;;;;;;;;;5042536;28;20048;-62
2023/12/11 11:20:01;;;;;;;5.55;1.45;;;;;;;;;;5046036;28;20523;-62
2023/12/11 11:22:27;;;;;;;6.47;1.08;;;;;;;;;;5028605;28;20580;-62
2023/12/11 11:24:52;;;;;;;7.85;1.80;;;;;;;;;;5034339;28;20123;-62
2023/12/11 11:27:36;;;;;;;5.07;1.37;;;;;;;;;;5046116;28;20494;-61
2023/12/11 11:30:01;;;;;;;9.02;1.15;;;;;;;;;;5042406;28;20951;-63
2023/12/11 11:32:46;;;;;;;5.20;1.27;;;;;;;;;;5041238;28;20016;-62
2023/12/11 11:35:31;;;;;;;8.32;1.73;;;;;;;;;;5021132;28;20378;-62
2023/12/11 11:37:56;;;;;;;9.82;1.67;;;;;;;;;;5028403;28;20071;-62
2023/12/11 11:40:35;;;;;;;7.80;1.67;;;;;;;;;;5021618;28;20028;-62
2023/12/11 11:43:00;;;;;;;6.05;1.60;;;;;;;;;;5016454;28;20382;-62
2023/12/11 11:45:26;;;;;;;5.60;1.40;;;;;;;;;;5013735;28;20030;-64
2023/12/11 11:47:51;;;;;;;5.47;1.95;;;;;;;;;;5022315;28;20910;-63
2023/12/11 11:50:18;;;;;;;5.17;2.00;;;;;;;;;;5021547;28;20028;-63
2023/12/11 11:52:46;;;;;;;2.78;1.08;;;;;;;;;;5022380;28;20276;-63
2023/12/11 11:55:21;;;;;;;6.07;1.73;;;;;;;;;;5021436;28;20187;-63
2023/12/11 11:57:46;;;;;;;8.23;1.83;;;;;;;;;;5022198;28;20040;-64
2023/12/11 12:00:15;;;;;;;4.60;1.87;;;;;;;;;;5028791;28;20079;-64
2023/12/11 12:02:41;;;;;;;5.43;2.13;;;;;;;;;;5042555;28;20286;-64
2023/12/11 12:05:11;;;;;;;4.25;1.67;;;;;;;;;;5044373;28;20145;-65
2023/12/11 12:07:44;;;;;;;5.97;1.58;;;;;;;;;;5040037;28;20118;-64
2023/12/11 12:10:11;;;;;;;6.25;2.28;;;;;;;;;;5061532;28;20035;-64
2023/12/11 12:12:36;;;;;;;4.85;2.10;;;;;;;;;;5035824;28;20132;-64
2023/12/11 12:15:04;;;;;;;8.20;2.53;;;;;;;;;;5032891;28;20034;-64
2023/12/11 12:20:10;;;;;;;5.32;2.10;;;;;;;;;;5010102;22;20046;-66
2023/12/11 12:22:35;;;;;;;5.07;2.17;;;;;;;;;;4993261;28;20041;-64
2023/12/11 12:25:01;;;;;;;5.50;2.03;;;;;;;;;;5010764;28;20018;-66
2023/12/11 12:27:27;;;;;;;5.40;2.15;;;;;;;;;;5015718;28;20057;-64
2023/12/11 12:29:52;;;;;;;4.00;1.92;;;;;;;;;;5019681;28;20021;-64
2023/12/11 12:32:18;;;;;;;5.80;1.90;;;;;;;;;;5020411;28;20140;-63
2023/12/11 12:34:44;;;;;;;5.55;1.88;;;;;;;;;;5013938;28;20443;-63
2023/12/11 12:37:10;;;;;;;5.57;1.83;;;;;;;;;;5011646;28;20035;-64
2023/12/11 12:39:36;;;;;;;5.72;1.80;;;;;;;;;;5026834;28;20068;-65
2023/12/11 12:42:01;;;;;;;3.72;1.63;;;;;;;;;;5017327;28;20026;-65
2023/12/11 12:44:26;;;;;;;4.22;1.23;;;;;;;;;;5012349;28;20037;-65
2023/12/11 12:46:52;;;;;;;4.30;1.40;;;;;;;;;;5012588;28;20378;-65
2023/12/11 12:49:17;;;;;;;3.03;1.08;;;;;;;;;;5022060;28;20325;-66
2023/12/11 12:51:50;;;;;;;8.02;1.10;;;;;;;;;;5009028;28;20369;-64
2023/12/11 12:54:16;;;;;;;2.67;0.95;;;;;;;;;;4996087;28;21649;-64
2023/12/11 12:56:42;;;;;;;3.38;1.48;;;;;;;;;;5013697;28;20049;-65
2023/12/11 12:59:07;;;;;;;3.03;0.90;;;;;;;;;;5012518;28;20910;-65
2023/12/11 13:01:36;;;;;;;4.72;1.13;;;;;;;;;;4985238;28;20034;-64
2023/12/11 13:04:02;;;;;;;4.05;0.93;;;;;;;;;;4984486;28;20815;-64
2023/12/11 13:06:27;;;;;;;3.40;1.25;;;;;;;;;;4975091;28;20057;-63
2023/12/11 13:08:53;;;;;;;3.92;1.30;;;;;;;;;;4979149;28;20132;-63
2023/12/11 13:11:18;;;;;;;4.13;1.25;;;;;;;;;;4990098;28;20030;-63
2023/12/11 13:13:56;;;;;;;4.05;1.25;;;;;;;;;;4980915;28;20597;-64
2023/12/11 13:16:21;;;;;;;2.85;1.00;;;;;;;;;;4984112;28;20029;-64
2023/12/11 13:18:51;;;;;;;4.00;1.10;;;;;;;;;;4979840;28;20095;-63
2023/12/11 13:21:16;;;;;;;2.85;0.73;;;;;;;;;;4979407;28;20515;-63
2023/12/11 13:23:41;;;;;;;3.95;1.00;;;;;;;;;;4983934;28;20483;-64
2023/12/11 13:26:06;;;;;;;3.73;1.03;;;;;;;;;;4988012;28;20114;-63
2023/12/11 13:28:31;;;;;;;2.65;0.80;;;;;;;;;;4981035;28;20288;-63
2023/12/11 13:30:57;;;;;;;4.23;1.00;;;;;;;;;;4984642;28;20038;-63
2023/12/11 13:33:23;;;;;;;3.15;1.00;;;;;;;;;;4987925;28;20300;-63
2023/12/11 13:35:50;;;;;;;2.95;0.82;;;;;;;;;;4975938;28;20147;-63
2023/12/11 13:38:15;;;;;;;2.25;0.68;;;;;;;;;;4985879;28;20028;-63
2023/12/11 13:40:40;;;;;;;3.60;1.00;;;;;;;;;;4978351;28;20029;-63
2023/12/11 13:43:05;;;;;;;3.95;0.65;;;;;;;;;;4976522;28;20029;-63
2023/12/11 13:45:31;;;;;;;3.63;0.90;;;;;;;;;;4983530;28;20034;-64
2023/12/11 13:47:56;;;;;;;4.40;1.07;;;;;;;;;;4986005;28;20287;-63
2023/12/11 13:50:21;;;;;;;2.60;1.15;;;;;;;;;;4985629;28;20338;-64
2023/12/11 13:52:46;;;;;;;5.50;1.55;;;;;;;;;;4989119;28;20093;-63
2023/12/11 13:55:11;;;;;;;4.03;1.17;;;;;;;;;;4988022;28;20060;-63
2023/12/11 13:57:37;;;;;;;3.90;1.10;;;;;;;;;;4985303;28;20371;-63
2023/12/11 14:00:02;;;;;;;3.05;1.40;;;;;;;;;;4983253;28;20276;-63
2023/12/11 14:02:28;;;;;;;5.47;1.67;;;;;;;;;;4971577;28;20022;-64
2023/12/11 14:04:53;;;;;;;2.80;1.35;;;;;;;;;;4988287;28;20017;-64
2023/12/11 14:07:18;;;;;;;7.80;1.83;;;;;;;;;;4975642;28;20037;-63
2023/12/11 14:09:43;;;;;;;6.10;1.90;;;;;;;;;;4988651;28;20039;-65
2023/12/11 14:12:09;;;;;;;2.93;1.60;;;;;;;;;;4976993;28;20273;-66
2023/12/11 14:14:36;;;;;;;5.82;1.60;;;;;;;;;;5004473;28;20310;-62
2023/12/11 14:17:03;;;;;;;6.00;2.42;;;;;;;;;;4985338;28;20285;-64
2023/12/11 14:19:30;;;;;;;4.70;1.92;;;;;;;;;;4984008;28;20872;-65
2023/12/11 14:21:55;;;;;;;5.60;2.05;;;;;;;;;;4984310;28;20225;-64
2023/12/11 14:24:21;;;;;;;5.25;2.50;;;;;;;;;;4982275;28;20530;-65
2023/12/11 14:26:46;;;;;;;4.90;2.15;;;;;;;;;;4976829;28;20026;-64
2023/12/11 14:29:11;;;;;;;5.20;2.07;;;;;;;;;;4978883;28;20039;-64
2023/12/11 14:31:36;;;;;;;7.67;2.60;;;;;;;;;;4974661;28;20268;-65